Terminal Aerodrome Forecast
Issued by NWS Wilmington, OH

Current Version | Previous Version | Text Only | Print | Product List | Glossary Off
Versions: 1 2 3 4 5 6 7 8 9 10 11 12 13 14 15 16 17 18 19

000
FTUS41 KILN 251800 AAA
TAFILN
TAF AMD
KILN 251832Z 2519/2618 27018G25KT P6SM BKN040
     FM252200 VRB05KT P6SM SCT050
     FM260700 08007KT 4SM -SHRA BR OVC040
     FM260900 09007KT 3SM -SHRA BR VCTS OVC015CB
     FM261300 33012G22KT 2SM -SHRA BR OVC010=

USA.gov is the U.S. government's official web portal to all federal, state and local government web resources and services.